createdAt,value
2023-03-26T00:06:25.615Z,99.30
2023-03-26T00:10:25.852Z,95.35
2023-03-26T00:14:26.074Z,96.85
2023-03-26T00:18:26.259Z,98.36
2023-03-26T00:22:26.485Z,96.86
2023-03-26T00:26:26.661Z,95.77
2023-03-26T00:30:26.909Z,97.28
2023-03-26T00:34:27.130Z,97.55
2023-03-26T00:38:27.367Z,97.80
2023-03-26T00:42:27.323Z,97.20
2023-03-26T00:46:27.300Z,96.73
2023-03-26T00:50:27.226Z,96.62
2023-03-26T05:02:26.342Z,105.86
2023-03-26T05:06:26.198Z,106.45
2023-03-26T05:14:26.270Z,106.29
2023-03-26T05:18:26.228Z,106.20
2023-03-26T05:22:26.205Z,105.99
2023-03-26T05:26:26.171Z,105.80
2023-03-26T05:30:26.077Z,106.35
2023-03-26T05:34:26.083Z,106.85
2023-03-26T05:38:26.066Z,106.01
2023-03-26T05:42:26.044Z,107.05
2023-03-26T05:46:26.009Z,105.45
2023-03-26T05:50:25.948Z,106.12
2023-03-26T05:54:26.073Z,106.32
2023-03-26T05:58:26.099Z,106.71
2023-03-26T06:02:26.098Z,105.21
2023-03-26T06:06:25.973Z,105.64
2023-03-26T06:10:25.948Z,106.42
2023-03-26T06:14:25.961Z,107.97
2023-03-26T06:18:25.899Z,106.13
2023-03-26T06:22:25.829Z,106.17
2023-03-26T06:26:25.855Z,106.50
2023-03-26T06:30:25.822Z,105.34
2023-03-26T06:34:25.785Z,105.43
2023-03-26T06:38:25.786Z,104.80
2023-03-26T06:43:06.957Z,106.78
2023-03-26T06:46:26.767Z,107.06
2023-03-26T06:50:25.659Z,106.33
2023-03-26T06:54:25.673Z,106.44
2023-03-26T06:58:25.587Z,106.29
2023-03-26T07:02:25.548Z,106.43
2023-03-26T07:06:25.500Z,108.73
2023-03-26T07:10:25.483Z,105.82
2023-03-26T07:14:25.504Z,106.42
2023-03-26T07:18:25.427Z,109.27
2023-03-26T07:22:25.398Z,109.06
2023-03-26T07:26:25.312Z,108.34
2023-03-26T07:30:25.308Z,108.61
2023-03-26T07:34:25.474Z,109.76
2023-03-26T07:38:25.724Z,107.05
2023-03-26T07:42:25.954Z,108.19
2023-03-26T07:46:25.929Z,106.27
2023-03-26T07:50:25.851Z,106.27
2023-03-26T07:54:25.792Z,108.07
2023-03-26T07:58:25.801Z,107.17
2023-03-26T08:02:25.806Z,106.39
2023-03-26T08:06:25.698Z,107.68
2023-03-26T08:10:25.667Z,107.81
2023-03-26T08:14:25.617Z,102.27
2023-03-26T08:18:25.572Z,104.32
2023-03-26T08:22:25.558Z,101.65
2023-03-26T08:26:25.671Z,101.30
2023-03-26T08:30:25.861Z,103.53
2023-03-26T08:34:26.090Z,103.03
2023-03-26T08:38:26.301Z,101.69
2023-03-26T08:42:26.429Z,100.03
2023-03-26T08:46:26.606Z,100.07
2023-03-26T08:50:26.775Z,102.07
2023-03-26T08:54:26.937Z,98.69
2023-03-26T08:58:27.223Z,97.43
2023-03-26T09:02:27.351Z,99.54
2023-03-26T09:06:27.449Z,98.70
2023-03-26T09:10:27.638Z,98.02
2023-03-26T09:14:27.770Z,99.36
2023-03-26T09:18:27.974Z,100.48
2023-03-26T09:22:28.099Z,101.26
2023-03-26T09:26:28.222Z,99.46
2023-03-26T09:30:28.430Z,98.88
2023-03-26T09:34:28.555Z,99.95
2023-03-26T09:38:28.704Z,100.87
2023-03-26T09:42:28.818Z,99.19
2023-03-26T09:46:29.130Z,97.20
2023-03-26T10:06:29.565Z,96.51
2023-03-26T10:38:30.381Z,98.09
2023-03-26T10:42:30.399Z,98.34
2023-03-26T10:46:30.547Z,95.72
2023-03-26T10:50:30.616Z,100.22
2023-03-26T10:54:30.742Z,97.37
2023-03-26T10:58:48.373Z,97.60
2023-03-26T11:06:30.775Z,95.93
2023-03-26T11:10:30.675Z,99.04
2023-03-26T11:14:34.942Z,95.34
2023-03-26T11:18:30.612Z,96.16
2023-03-26T11:22:30.566Z,97.02
2023-03-26T11:26:30.590Z,95.61
2023-03-26T11:30:30.529Z,96.87
2023-03-26T11:34:30.461Z,95.54
2023-03-26T11:38:30.467Z,98.14
2023-03-26T11:42:30.415Z,97.55
2023-03-26T11:46:33.144Z,96.30
2023-03-26T11:50:30.339Z,98.89
2023-03-26T11:54:30.398Z,98.59
2023-03-26T11:58:30.296Z,97.93
2023-03-26T12:02:30.263Z,96.18
2023-03-26T12:06:30.160Z,99.19
2023-03-26T12:10:30.132Z,97.63
2023-03-26T12:14:30.101Z,98.10
2023-03-26T12:18:30.065Z,99.80
2023-03-26T12:22:30.043Z,97.88
2023-03-26T12:26:29.974Z,96.40
2023-03-26T12:30:29.940Z,97.03
2023-03-26T12:34:29.917Z,99.47
2023-03-26T12:38:29.865Z,98.60
2023-03-26T12:44:48.365Z,97.82
2023-03-26T12:50:34.532Z,100.23
2023-03-26T12:58:29.702Z,97.55
2023-03-26T13:02:29.765Z,99.61
2023-03-26T13:06:29.620Z,101.63
2023-03-26T13:10:29.576Z,99.55
2023-03-26T13:14:29.585Z,96.97
2023-03-26T13:18:29.680Z,101.13
2023-03-26T13:22:29.740Z,98.26
2023-03-26T13:26:29.832Z,97.91
2023-03-26T13:30:29.933Z,99.60
2023-03-26T13:34:30.037Z,98.46
2023-03-26T13:38:30.128Z,95.69
2023-03-26T13:42:30.193Z,97.48
2023-03-26T13:46:30.362Z,99.24
2023-03-26T13:50:30.448Z,97.32
2023-03-26T13:54:30.573Z,98.37
2023-03-26T19:46:53.734Z,100.08
2023-03-26T20:10:38.342Z,101.69
2023-03-26T20:50:44.849Z,100.82
2023-03-26T20:54:39.283Z,101.82
2023-03-26T20:58:38.288Z,102.85
2023-03-26T21:02:38.903Z,104.23
2023-03-26T21:26:41.654Z,109.04
